Terminal Aerodrome Forecast
Issued by NWS

Home | Current Version | Previous Version | Text Only | Print | Product List | Glossary On
Versions: 1 2 3 4 5 6 7 8 9 10 11 12 13 14 15 16
000
FTUS45 KTFX 260527
TAFBZN
TAF
KBZN 260527Z 2606/2706 08007KT P6SM VCSH SCT040 OVC070
      TEMPO 2608/2610 -RA BKN035
     FM261000 04009KT 6SM -RASN BR SCT015 OVC025
      TEMPO 2610/2612 4SM -SN BR BKN012
     FM261200 02009KT 5SM -SNRA BR SCT008 OVC018
      TEMPO 2612/2616 3SM -SN BR BKN008
     FM261800 01007KT P6SM -SHRA SCT015 OVC025
     FM270000 VRB05KT P6SM VCSH SCT030 BKN060=

USA.gov is the U.S. government's official web portal to all federal, state and local government web resources and services.